createdAt,value
2022-08-17T00:01:00.350Z,27.25
2022-08-17T00:02:41.119Z,27.22
2022-08-17T00:04:15.022Z,27.23
2022-08-17T00:05:53.805Z,27.25
2022-08-17T00:07:25.589Z,27.24
2022-08-17T00:09:00.229Z,27.22
2022-08-17T00:10:32.486Z,27.20
2022-08-17T00:12:42.885Z,27.19
2022-08-17T00:14:02.567Z,27.15
2022-08-17T00:15:34.625Z,27.09
2022-08-17T00:17:06.695Z,27.08
2022-08-17T00:19:01.506Z,27.10
2022-08-17T00:20:35.014Z,27.12
2022-08-17T00:22:33.121Z,27.14
2022-08-17T00:23:59.513Z,27.11
2022-08-17T00:25:31.865Z,27.14
2022-08-17T00:27:05.059Z,27.11
2022-08-17T00:28:37.825Z,27.13
2022-08-17T00:30:12.405Z,27.14
2022-08-17T00:31:44.300Z,27.14
2022-08-17T00:33:18.459Z,27.15
2022-08-17T00:34:50.253Z,27.14
2022-08-17T00:36:23.990Z,27.15
2022-08-17T00:37:55.750Z,27.13
2022-08-17T00:39:27.479Z,27.14
2022-08-17T00:41:01.686Z,27.08
2022-08-17T00:42:34.898Z,27.05
2022-08-17T00:44:08.591Z,27.02
2022-08-17T00:45:40.688Z,26.99
2022-08-17T00:47:12.471Z,27.01
2022-08-17T00:48:45.178Z,27.02
2022-08-17T00:50:19.417Z,27.01
2022-08-17T00:51:55.022Z,27.00
2022-08-17T00:53:30.701Z,26.96
2022-08-17T00:55:04.795Z,26.94
2022-08-17T00:56:41.592Z,26.89
2022-08-17T00:58:15.005Z,26.82
2022-08-17T00:59:56.037Z,26.76
2022-08-17T01:01:36.826Z,26.68
2022-08-17T01:03:11.883Z,26.63
2022-08-17T01:04:46.920Z,26.59
2022-08-17T01:06:20.132Z,26.58
2022-08-17T01:07:52.962Z,26.57
2022-08-17T01:09:25.495Z,26.52
2022-08-17T01:11:02.237Z,26.52
2022-08-17T01:12:36.993Z,26.53
2022-08-17T01:14:10.165Z,26.50
2022-08-17T01:15:48.608Z,26.51
2022-08-17T01:17:20.724Z,26.52
2022-08-17T01:18:56.981Z,26.54
2022-08-17T01:20:29.509Z,26.53
2022-08-17T01:22:06.404Z,26.55
2022-08-17T01:23:42.093Z,26.57
2022-08-17T01:25:14.558Z,26.57
2022-08-17T01:26:47.142Z,26.56
2022-08-17T01:28:53.040Z,26.52
2022-08-17T01:30:58.316Z,26.47
2022-08-17T01:32:08.138Z,26.45
2022-08-17T01:33:40.420Z,26.42
2022-08-17T01:35:12.596Z,26.38
2022-08-17T01:36:47.773Z,26.34
2022-08-17T01:38:19.708Z,26.34
2022-08-17T01:40:05.680Z,26.28
2022-08-17T01:41:40.383Z,26.25
2022-08-17T01:43:16.098Z,26.26
2022-08-17T01:44:47.862Z,26.26
2022-08-17T01:46:24.182Z,26.24
2022-08-17T01:47:56.895Z,26.24
2022-08-17T01:49:28.791Z,26.25
2022-08-17T01:51:01.120Z,26.23
2022-08-17T01:52:32.880Z,26.22
2022-08-17T01:54:08.586Z,26.19
2022-08-17T01:55:47.217Z,26.18
2022-08-17T01:57:18.909Z,26.12
2022-08-17T01:58:50.756Z,26.11
2022-08-17T02:00:22.493Z,26.08
2022-08-17T02:01:54.263Z,26.02
2022-08-17T02:03:26.243Z,26.00
2022-08-17T02:04:58.277Z,25.96
2022-08-17T02:06:52.545Z,25.93
2022-08-17T02:08:39.547Z,25.87
2022-08-17T02:10:19.806Z,25.84
2022-08-17T02:11:54.096Z,25.80
2022-08-17T02:13:29.604Z,25.78
2022-08-17T02:15:01.310Z,25.75
2022-08-17T02:16:36.780Z,25.70
2022-08-17T02:18:10.588Z,25.69
2022-08-17T02:19:42.737Z,25.66
2022-08-17T02:21:14.777Z,25.68
2022-08-17T02:22:47.664Z,25.70
2022-08-17T02:24:58.754Z,25.71
2022-08-17T02:26:23.875Z,25.72
2022-08-17T02:27:59.241Z,25.70
2022-08-17T02:29:31.069Z,25.67
2022-08-17T02:31:05.190Z,25.65
2022-08-17T02:32:37.424Z,25.59
2022-08-17T02:34:09.309Z,25.55
2022-08-17T02:35:42.852Z,25.54
2022-08-17T02:37:17.746Z,25.53
2022-08-17T02:38:49.566Z,25.50
2022-08-17T02:40:36.116Z,25.49
2022-08-17T02:42:08.676Z,25.47
2022-08-17T02:43:41.857Z,25.49
2022-08-17T02:45:16.510Z,25.50
2022-08-17T02:46:48.307Z,25.49
2022-08-17T02:48:31.629Z,25.46
2022-08-17T02:50:05.107Z,25.44
2022-08-17T02:51:36.858Z,25.45
2022-08-17T02:53:08.553Z,25.47
2022-08-17T02:54:42.422Z,25.49
2022-08-17T02:56:14.379Z,25.51
2022-08-17T02:57:46.751Z,25.52
2022-08-17T02:59:19.950Z,25.53
2022-08-17T03:00:51.658Z,25.53
2022-08-17T03:02:23.378Z,25.53
2022-08-17T03:03:55.221Z,25.50
2022-08-17T03:05:29.386Z,25.44
2022-08-17T03:07:01.177Z,25.42
2022-08-17T03:08:32.977Z,25.42
2022-08-17T03:10:05.207Z,25.38
2022-08-17T03:11:36.875Z,25.34
2022-08-17T03:13:08.809Z,25.30
2022-08-17T03:14:43.460Z,25.22
2022-08-17T03:16:15.885Z,25.14
2022-08-17T03:17:47.592Z,25.12
2022-08-17T03:19:19.280Z,25.07
2022-08-17T03:20:51.467Z,25.05
2022-08-17T03:22:36.457Z,25.05
2022-08-17T03:24:09.323Z,25.05
2022-08-17T03:25:44.083Z,25.08
2022-08-17T03:27:15.853Z,25.08
2022-08-17T03:28:47.609Z,25.07
2022-08-17T03:30:22.509Z,25.11
2022-08-17T03:31:54.184Z,25.14
2022-08-17T03:33:25.884Z,25.12
2022-08-17T03:34:59.685Z,25.11
2022-08-17T03:36:31.387Z,25.09
2022-08-17T03:38:08.999Z,25.07
2022-08-17T03:39:40.787Z,25.04
2022-08-17T03:41:13.840Z,25.01
2022-08-17T03:42:45.662Z,24.99
2022-08-17T03:44:17.370Z,24.97
2022-08-17T03:46:11.046Z,24.97
2022-08-17T03:48:17.782Z,24.93
2022-08-17T03:50:10.434Z,24.94
2022-08-17T03:52:00.853Z,24.95
2022-08-17T03:53:51.146Z,24.93
2022-08-17T03:55:41.339Z,24.92
2022-08-17T03:57:13.313Z,24.90
2022-08-17T03:58:45.801Z,24.88
2022-08-17T04:00:17.739Z,24.85
2022-08-17T04:01:53.580Z,24.84
2022-08-17T04:03:26.200Z,24.84
2022-08-17T04:04:58.745Z,24.87
2022-08-17T04:06:30.458Z,24.83
2022-08-17T04:08:02.392Z,24.81
2022-08-17T04:09:37.202Z,24.80
2022-08-17T04:11:09.711Z,24.79
2022-08-17T04:12:44.859Z,24.81
2022-08-17T04:14:16.594Z,24.82
2022-08-17T04:15:49.156Z,24.83
2022-08-17T04:17:24.128Z,24.83
2022-08-17T04:18:56.026Z,24.83
2022-08-17T04:20:28.526Z,24.85
2022-08-17T04:22:00.376Z,24.85
2022-08-17T04:23:34.932Z,24.85
2022-08-17T04:25:13.599Z,24.83
2022-08-17T04:26:53.903Z,24.79
2022-08-17T04:28:26.232Z,24.76
2022-08-17T04:29:58.584Z,24.77
2022-08-17T04:31:30.510Z,24.81
2022-08-17T04:33:07.453Z,24.88
2022-08-17T04:34:39.629Z,24.91
2022-08-17T04:36:12.964Z,24.97
2022-08-17T04:37:45.287Z,25.00
2022-08-17T04:39:17.041Z,25.03
2022-08-17T04:41:07.411Z,25.10
2022-08-17T04:42:39.143Z,25.17
2022-08-17T04:44:11.534Z,25.24
2022-08-17T04:45:55.662Z,25.34
2022-08-17T04:47:28.201Z,25.44
2022-08-17T04:49:04.048Z,25.55
2022-08-17T04:50:37.399Z,25.64
2022-08-17T04:52:29.755Z,25.69
2022-08-17T04:54:06.287Z,25.77
2022-08-17T04:55:38.074Z,25.82
2022-08-17T04:57:09.848Z,25.87
2022-08-17T04:58:41.630Z,25.94
2022-08-17T05:00:14.058Z,26.00
2022-08-17T05:01:47.641Z,26.07
2022-08-17T05:03:19.440Z,26.07
2022-08-17T05:04:52.544Z,26.07
2022-08-17T05:06:28.103Z,26.05
2022-08-17T05:08:02.395Z,26.06
2022-08-17T05:09:34.077Z,26.03
2022-08-17T05:11:06.340Z,26.00
2022-08-17T05:12:38.176Z,25.99
2022-08-17T05:14:10.081Z,25.99
2022-08-17T05:15:44.878Z,26.03
2022-08-17T05:17:16.968Z,26.04
2022-08-17T05:18:49.569Z,26.01
2022-08-17T05:20:23.781Z,26.04
2022-08-17T05:21:55.463Z,26.06
2022-08-17T05:23:32.723Z,26.04
2022-08-17T05:25:14.915Z,26.09
2022-08-17T05:26:46.818Z,26.10
2022-08-17T05:28:26.576Z,26.08
2022-08-17T05:29:59.712Z,26.11
2022-08-17T05:31:31.432Z,26.16
2022-08-17T05:33:05.623Z,26.22
2022-08-17T05:34:37.454Z,26.28
2022-08-17T05:36:41.684Z,26.28
2022-08-17T05:38:04.895Z,26.27
2022-08-17T05:39:36.705Z,26.26
2022-08-17T05:41:09.124Z,26.22
2022-08-17T05:42:40.928Z,26.23
2022-08-17T05:44:12.706Z,26.27
2022-08-17T05:45:55.828Z,26.32
2022-08-17T05:47:30.306Z,26.31
2022-08-17T05:49:05.581Z,26.32
2022-08-17T05:50:48.055Z,26.32
2022-08-17T05:52:30.706Z,26.33
2022-08-17T05:54:15.995Z,26.38
2022-08-17T05:55:54.435Z,26.36
2022-08-17T05:57:53.053Z,26.38
2022-08-17T05:59:37.476Z,26.46
2022-08-17T06:01:19.615Z,26.56
2022-08-17T06:03:00.670Z,26.65
2022-08-17T06:04:47.524Z,26.71
2022-08-17T06:06:31.713Z,26.76
2022-08-17T06:08:17.491Z,26.82
2022-08-17T06:10:01.235Z,26.85
2022-08-17T06:11:38.886Z,26.92
2022-08-17T06:13:31.607Z,26.95
2022-08-17T06:15:26.211Z,27.01
2022-08-17T06:17:02.284Z,27.00
2022-08-17T06:18:41.631Z,27.03
2022-08-17T06:20:15.639Z,27.04
2022-08-17T06:21:50.959Z,27.06
2022-08-17T06:23:29.373Z,27.07
2022-08-17T06:25:10.180Z,27.10
2022-08-17T06:26:45.409Z,27.11
2022-08-17T06:28:27.426Z,27.17
2022-08-17T06:30:08.122Z,27.20
2022-08-17T06:31:40.757Z,27.19
2022-08-17T06:33:20.948Z,27.23
2022-08-17T06:34:53.548Z,27.23
2022-08-17T06:36:40.462Z,27.27
2022-08-17T06:38:21.837Z,27.30
2022-08-17T06:40:28.568Z,27.30
2022-08-17T06:42:10.150Z,27.32
2022-08-17T06:44:12.641Z,27.37
2022-08-17T06:46:11.355Z,27.39
2022-08-17T06:47:49.317Z,27.38
2022-08-17T06:49:26.113Z,27.38
2022-08-17T06:51:02.381Z,27.36
2022-08-17T06:52:46.723Z,27.36
2022-08-17T06:54:36.409Z,27.35
2022-08-17T06:56:12.824Z,27.32
2022-08-17T06:57:49.307Z,27.32
2022-08-17T06:59:26.200Z,27.34
2022-08-17T07:01:08.242Z,27.32
2022-08-17T07:03:02.465Z,27.30
2022-08-17T07:04:35.871Z,27.30
2022-08-17T07:06:12.720Z,27.32
2022-08-17T07:08:04.338Z,27.37
2022-08-17T07:09:37.386Z,27.39
2022-08-17T07:11:14.355Z,27.39
2022-08-17T07:12:48.283Z,27.35
2022-08-17T07:14:30.821Z,27.30
2022-08-17T07:16:13.103Z,27.25
2022-08-17T07:17:48.378Z,27.29
2022-08-17T07:19:26.618Z,27.34
2022-08-17T07:21:04.930Z,27.32
2022-08-17T07:22:57.630Z,27.32
2022-08-17T07:24:43.287Z,27.30
2022-08-17T07:26:16.346Z,27.37
2022-08-17T07:27:52.809Z,27.38
2022-08-17T07:29:24.775Z,27.35
2022-08-17T07:30:56.601Z,27.26
2022-08-17T07:32:34.164Z,27.11
2022-08-17T07:34:14.475Z,27.13
2022-08-17T07:35:48.338Z,27.16
2022-08-17T07:37:20.427Z,27.01
2022-08-17T07:38:56.615Z,27.06
2022-08-17T07:40:31.944Z,27.04
2022-08-17T07:42:05.534Z,26.88
2022-08-17T07:43:45.556Z,26.65
2022-08-17T07:45:36.429Z,26.51
2022-08-17T07:47:35.423Z,26.55
2022-08-17T07:49:21.533Z,26.76
2022-08-17T07:50:53.494Z,26.92
2022-08-17T07:52:50.895Z,27.10
2022-08-17T07:54:30.197Z,27.17
2022-08-17T07:56:01.937Z,27.20
2022-08-17T07:57:36.126Z,27.23
2022-08-17T07:59:14.548Z,27.32
2022-08-17T08:00:46.637Z,27.42
2022-08-17T08:02:31.916Z,27.53
2022-08-17T08:04:59.074Z,27.59
2022-08-17T08:06:23.592Z,27.61
2022-08-17T08:07:57.724Z,27.69
2022-08-17T08:09:42.614Z,27.76
2022-08-17T08:11:28.194Z,27.85
2022-08-17T08:13:09.007Z,27.96
2022-08-17T08:14:56.114Z,28.03
2022-08-17T08:16:31.534Z,28.12
2022-08-17T08:18:18.666Z,28.16
2022-08-17T08:20:42.496Z,28.20
2022-08-17T08:22:10.261Z,28.24
2022-08-17T08:23:49.906Z,28.24
2022-08-17T08:25:27.093Z,28.20
2022-08-17T08:27:12.612Z,28.17
2022-08-17T08:28:54.746Z,28.15
2022-08-17T08:30:28.165Z,28.13
2022-08-17T08:32:16.314Z,28.18
2022-08-17T08:33:57.275Z,28.22
2022-08-17T08:35:33.698Z,28.23
2022-08-17T08:37:18.006Z,28.17
2022-08-17T08:38:58.583Z,28.05
2022-08-17T08:40:43.427Z,28.06
2022-08-17T08:42:24.608Z,28.08
2022-08-17T08:44:08.216Z,28.13
2022-08-17T08:45:50.336Z,28.14
2022-08-17T08:47:35.258Z,28.13
2022-08-17T08:50:01.980Z,28.06
2022-08-17T08:51:40.630Z,28.00
2022-08-17T08:53:25.341Z,27.97
2022-08-17T08:55:05.420Z,27.92
2022-08-17T08:56:58.952Z,27.88
2022-08-17T08:58:50.475Z,27.82
2022-08-17T09:00:25.670Z,27.84
2022-08-17T09:02:07.143Z,27.86
2022-08-17T09:03:53.969Z,27.89
2022-08-17T09:05:39.193Z,27.87
2022-08-17T09:07:22.384Z,27.88
2022-08-17T09:09:07.331Z,27.87
2022-08-17T09:10:52.298Z,27.87
2022-08-17T09:12:33.558Z,27.88
2022-08-17T09:14:21.692Z,27.89
2022-08-17T09:15:59.033Z,27.87
2022-08-17T09:17:38.899Z,27.85
2022-08-17T09:19:17.190Z,27.82
2022-08-17T09:20:55.488Z,27.83
2022-08-17T09:22:33.849Z,27.85
2022-08-17T09:24:12.862Z,27.82
2022-08-17T09:25:50.785Z,27.80
2022-08-17T09:27:30.527Z,27.78
2022-08-17T09:29:08.644Z,27.82
2022-08-17T09:30:44.041Z,27.81
2022-08-17T09:32:20.449Z,27.85
2022-08-17T09:33:55.408Z,27.87
2022-08-17T09:35:36.683Z,27.84
2022-08-17T09:37:19.214Z,27.81
2022-08-17T09:39:00.278Z,27.79
2022-08-17T09:40:38.365Z,27.81
2022-08-17T09:42:19.823Z,27.83
2022-08-17T09:43:58.617Z,27.83
2022-08-17T09:45:34.173Z,27.79
2022-08-17T09:47:11.716Z,27.74
2022-08-17T09:48:50.322Z,27.71
2022-08-17T09:51:03.335Z,27.70
2022-08-17T09:52:21.821Z,27.66
2022-08-17T09:53:54.205Z,27.64
2022-08-17T09:55:43.414Z,27.64
2022-08-17T09:57:32.035Z,27.65
2022-08-17T09:59:27.447Z,27.67
2022-08-17T10:01:17.862Z,27.67
2022-08-17T10:03:18.733Z,27.67
2022-08-17T10:04:58.584Z,27.68
2022-08-17T10:06:35.467Z,27.70
2022-08-17T10:08:15.067Z,27.65
2022-08-17T10:09:55.739Z,27.61
2022-08-17T10:11:52.269Z,27.61
2022-08-17T10:13:34.347Z,27.63
2022-08-17T10:15:22.499Z,27.67
2022-08-17T10:17:01.998Z,27.66
2022-08-17T10:18:49.532Z,27.63
2022-08-17T10:20:27.586Z,27.58
2022-08-17T10:22:34.985Z,27.57
2022-08-17T10:24:31.642Z,27.57
2022-08-17T10:26:15.974Z,27.58
2022-08-17T10:27:52.479Z,27.56
2022-08-17T10:29:46.229Z,27.61
2022-08-17T10:31:34.862Z,27.61
2022-08-17T10:33:15.545Z,27.61
2022-08-17T10:35:02.709Z,27.60
2022-08-17T10:36:48.000Z,27.59
2022-08-17T10:38:37.036Z,27.60
2022-08-17T10:40:24.581Z,27.63
2022-08-17T10:42:02.601Z,27.56
2022-08-17T10:43:55.749Z,27.54
2022-08-17T10:46:27.783Z,27.54
2022-08-17T10:48:04.718Z,27.53
2022-08-17T10:49:38.390Z,27.60
2022-08-17T10:51:12.470Z,27.55
2022-08-17T10:52:49.283Z,27.51
2022-08-17T10:54:40.437Z,27.31
2022-08-17T10:56:21.715Z,26.67
2022-08-17T10:58:20.869Z,26.24
2022-08-17T10:59:54.306Z,25.85
2022-08-17T11:02:04.145Z,25.52
2022-08-17T11:03:35.998Z,25.30
2022-08-17T11:05:18.294Z,25.22
2022-08-17T11:07:02.222Z,25.26
2022-08-17T11:09:10.634Z,25.41
2022-08-17T11:11:20.864Z,25.48
2022-08-17T11:13:01.814Z,25.58
2022-08-17T11:14:47.227Z,25.68
2022-08-17T11:16:47.941Z,25.75
2022-08-17T11:19:10.063Z,25.83
2022-08-17T11:21:20.710Z,25.93
2022-08-17T11:23:43.028Z,25.97
2022-08-17T11:25:19.218Z,25.98
2022-08-17T11:27:04.948Z,26.21
2022-08-17T11:28:48.711Z,26.51
2022-08-17T11:30:44.497Z,26.50
2022-08-17T11:32:32.089Z,26.63
2022-08-17T11:34:06.237Z,26.98
2022-08-17T11:35:47.125Z,27.29
2022-08-17T11:37:41.686Z,27.72
2022-08-17T11:39:35.410Z,28.08
2022-08-17T11:41:20.033Z,28.26
2022-08-17T11:43:10.649Z,28.48
2022-08-17T11:44:51.167Z,28.54
2022-08-17T11:46:52.676Z,28.69
2022-08-17T11:48:54.021Z,28.83
2022-08-17T11:50:54.995Z,28.91
2022-08-17T11:52:39.067Z,28.81
2022-08-17T11:54:34.097Z,28.75
2022-08-17T11:56:09.463Z,28.92
2022-08-17T11:58:00.152Z,28.99
2022-08-17T11:59:58.662Z,28.85
2022-08-17T12:01:55.650Z,28.68
2022-08-17T12:03:55.203Z,28.75
2022-08-17T12:05:32.868Z,28.46
2022-08-17T12:07:09.064Z,28.51
2022-08-17T12:08:43.603Z,28.40
2022-08-17T12:10:21.440Z,28.13
2022-08-17T12:12:11.944Z,27.95
2022-08-17T12:13:51.927Z,28.08
2022-08-17T12:15:28.999Z,27.82
2022-08-17T12:17:03.943Z,27.61
2022-08-17T12:18:39.415Z,27.76
2022-08-17T12:20:18.528Z,27.87
2022-08-17T12:22:00.716Z,27.92
2022-08-17T12:23:40.852Z,27.88
2022-08-17T12:25:22.313Z,27.99
2022-08-17T12:26:58.748Z,27.75
2022-08-17T12:28:33.404Z,27.90
2022-08-17T12:30:12.032Z,28.26
2022-08-17T12:31:47.134Z,28.27
2022-08-17T12:33:25.790Z,28.54
2022-08-17T12:35:00.743Z,28.66
2022-08-17T12:36:33.786Z,28.66
2022-08-17T12:38:26.637Z,28.61
2022-08-17T12:40:03.595Z,28.60
2022-08-17T12:41:38.898Z,28.74
2022-08-17T12:43:21.279Z,28.72
2022-08-17T12:44:53.040Z,28.23
2022-08-17T12:46:26.155Z,27.94
2022-08-17T12:48:04.116Z,27.64
2022-08-17T12:49:37.589Z,27.62
2022-08-17T12:51:12.635Z,27.81
2022-08-17T12:52:44.534Z,27.94
2022-08-17T12:54:26.878Z,28.06
2022-08-17T12:56:00.278Z,27.86
2022-08-17T12:57:41.089Z,27.55
2022-08-17T12:59:12.793Z,27.53
2022-08-17T13:00:50.542Z,27.59
2022-08-17T13:02:30.164Z,27.73
2022-08-17T13:04:02.003Z,27.87
2022-08-17T13:05:35.975Z,28.28
2022-08-17T13:07:07.724Z,28.33
2022-08-17T13:08:43.085Z,28.21
2022-08-17T13:10:23.248Z,28.09
2022-08-17T13:11:59.406Z,28.06
2022-08-17T13:13:35.927Z,28.08
2022-08-17T13:15:16.952Z,28.33
2022-08-17T13:16:53.645Z,28.67
2022-08-17T13:18:39.796Z,28.58
2022-08-17T13:20:15.044Z,28.57
2022-08-17T13:21:49.229Z,28.68
2022-08-17T13:23:21.116Z,28.92
2022-08-17T13:24:55.019Z,29.10
2022-08-17T13:26:32.463Z,28.93
2022-08-17T13:28:04.349Z,28.54
2022-08-17T13:29:39.434Z,28.51
2022-08-17T13:31:21.554Z,28.41
2022-08-17T13:32:54.148Z,28.42
2022-08-17T13:34:36.943Z,28.41
2022-08-17T13:36:30.136Z,28.28
2022-08-17T13:38:06.442Z,28.13
2022-08-17T13:39:41.697Z,28.13
2022-08-17T13:41:33.555Z,28.10
2022-08-17T13:43:05.450Z,28.46
2022-08-17T13:44:39.601Z,28.68
2022-08-17T13:46:17.616Z,28.85
2022-08-17T13:47:49.541Z,29.05
2022-08-17T13:49:21.711Z,29.28
2022-08-17T13:51:39.361Z,29.42
2022-08-17T13:53:19.954Z,29.20
2022-08-17T13:54:52.063Z,28.99
2022-08-17T13:56:39.392Z,28.83
2022-08-17T13:58:11.715Z,28.28
2022-08-17T13:59:54.749Z,28.47
2022-08-17T14:01:33.353Z,28.29
2022-08-17T14:03:05.739Z,27.90
2022-08-17T14:04:41.248Z,27.82
2022-08-17T14:06:23.711Z,28.06
2022-08-17T14:08:07.580Z,27.99
2022-08-17T14:09:47.800Z,27.77
2022-08-17T14:11:21.354Z,27.73
2022-08-17T14:12:53.319Z,27.90
2022-08-17T14:14:25.925Z,28.17
2022-08-17T14:15:57.596Z,28.41
2022-08-17T14:17:35.036Z,28.52
2022-08-17T14:19:11.471Z,28.55
2022-08-17T14:20:44.161Z,28.72
2022-08-17T14:22:23.581Z,28.87
2022-08-17T14:23:55.316Z,28.45
2022-08-17T14:25:29.351Z,28.30
2022-08-17T14:27:04.009Z,28.02
2022-08-17T14:28:36.476Z,28.10
2022-08-17T14:30:09.930Z,28.24
2022-08-17T14:31:41.603Z,28.38
2022-08-17T14:33:14.518Z,28.46
2022-08-17T14:34:47.284Z,28.53
2022-08-17T14:36:19.061Z,28.39
2022-08-17T14:37:53.124Z,28.36
2022-08-17T14:39:25.293Z,28.38
2022-08-17T14:40:57.313Z,28.57
2022-08-17T14:42:33.108Z,28.69
2022-08-17T14:44:05.732Z,28.80
2022-08-17T14:45:37.527Z,28.90
2022-08-17T14:47:14.942Z,28.81
2022-08-17T14:48:47.143Z,28.74
2022-08-17T14:50:21.027Z,28.71
2022-08-17T14:51:54.113Z,28.75
2022-08-17T14:53:27.209Z,28.93
2022-08-17T14:54:58.994Z,29.12
2022-08-17T14:56:35.354Z,29.30
2022-08-17T14:58:09.927Z,29.34
2022-08-17T14:59:41.639Z,29.48
2022-08-17T15:01:14.027Z,29.54
2022-08-17T15:02:48.761Z,29.64
2022-08-17T15:04:20.417Z,29.70
2022-08-17T15:05:52.233Z,29.59
2022-08-17T15:07:26.132Z,29.57
2022-08-17T15:09:04.181Z,29.69
2022-08-17T15:10:36.736Z,29.79
2022-08-17T15:12:08.801Z,29.93
2022-08-17T15:13:52.500Z,29.97
2022-08-17T15:15:25.422Z,29.76
2022-08-17T15:16:57.161Z,29.57
2022-08-17T15:18:29.588Z,29.52
2022-08-17T15:20:01.356Z,29.37
2022-08-17T15:21:33.700Z,29.50
2022-08-17T15:23:06.940Z,29.78
2022-08-17T15:24:39.984Z,29.69
2022-08-17T15:26:11.705Z,29.73
2022-08-17T15:27:44.029Z,29.85
2022-08-17T15:29:15.836Z,30.05
2022-08-17T15:30:47.567Z,30.34
2022-08-17T15:32:27.253Z,30.58
2022-08-17T15:33:59.365Z,30.47
2022-08-17T15:35:32.972Z,30.45
2022-08-17T15:37:04.867Z,30.54
2022-08-17T15:38:39.253Z,30.34
2022-08-17T15:40:13.315Z,30.23
2022-08-17T15:41:45.086Z,30.25
2022-08-17T15:43:23.301Z,30.22
2022-08-17T15:44:59.983Z,30.47
2022-08-17T15:46:31.783Z,30.55
2022-08-17T15:48:08.879Z,30.44
2022-08-17T15:49:41.619Z,30.02
2022-08-17T15:51:15.533Z,29.83
2022-08-17T15:52:47.550Z,29.50
2022-08-17T15:54:22.828Z,29.18
2022-08-17T15:55:57.092Z,28.85
2022-08-17T15:57:28.807Z,28.56
2022-08-17T15:59:01.102Z,28.42
2022-08-17T16:00:43.511Z,28.51
2022-08-17T16:03:13.615Z,28.21
2022-08-17T16:04:30.401Z,28.08
2022-08-17T16:06:03.433Z,28.24
2022-08-17T16:07:35.431Z,28.28
2022-08-17T16:09:07.161Z,28.43
2022-08-17T16:10:39.398Z,28.56
2022-08-17T16:12:14.805Z,28.64
2022-08-17T16:13:54.473Z,28.55
2022-08-17T16:15:26.833Z,28.35
2022-08-17T16:16:59.081Z,28.35
2022-08-17T16:18:31.611Z,28.48
2022-08-17T16:20:04.753Z,28.62
2022-08-17T16:21:42.647Z,28.72
2022-08-17T16:23:20.116Z,28.81
2022-08-17T16:24:57.361Z,28.92
2022-08-17T16:26:30.797Z,28.97
2022-08-17T16:28:04.365Z,29.05
2022-08-17T16:29:38.545Z,29.05
2022-08-17T16:31:10.318Z,29.09
2022-08-17T16:32:42.480Z,28.96
2022-08-17T16:34:17.549Z,28.81
2022-08-17T16:35:50.296Z,28.66
2022-08-17T16:37:22.129Z,28.37
2022-08-17T16:38:53.844Z,28.17
2022-08-17T16:40:29.287Z,28.06
2022-08-17T16:42:04.874Z,28.11
2022-08-17T16:43:37.964Z,28.25
2022-08-17T16:45:13.686Z,28.32
2022-08-17T16:46:47.232Z,28.36
2022-08-17T16:48:19.712Z,28.43
2022-08-17T16:49:51.412Z,28.48
2022-08-17T16:51:23.155Z,28.40
2022-08-17T16:53:03.022Z,28.30
2022-08-17T16:54:37.590Z,28.26
2022-08-17T16:56:09.301Z,28.34
2022-08-17T16:57:47.514Z,28.43
2022-08-17T16:59:30.875Z,28.49
2022-08-17T17:01:03.695Z,28.54
2022-08-17T17:02:37.865Z,28.50
2022-08-17T17:04:14.722Z,28.41
2022-08-17T17:06:03.678Z,28.50
2022-08-17T17:07:49.890Z,28.49
2022-08-17T17:09:27.845Z,28.38
2022-08-17T17:11:13.868Z,28.29
2022-08-17T17:13:01.629Z,28.31
2022-08-17T17:14:42.059Z,28.38
2022-08-17T17:16:21.539Z,28.35
2022-08-17T17:17:55.577Z,28.21
2022-08-17T17:19:37.245Z,27.94
2022-08-17T17:21:14.086Z,27.61
2022-08-17T17:22:49.056Z,27.47
2022-08-17T17:24:28.860Z,27.34
2022-08-17T17:26:11.536Z,27.05
2022-08-17T17:27:54.657Z,26.96
2022-08-17T17:29:47.378Z,26.97
2022-08-17T17:31:25.323Z,27.01
2022-08-17T17:33:03.517Z,27.10
2022-08-17T17:34:38.002Z,27.17
2022-08-17T17:36:24.140Z,27.28
2022-08-17T17:37:57.347Z,27.38
2022-08-17T17:39:44.158Z,27.51
2022-08-17T17:41:25.445Z,27.58
2022-08-17T17:43:14.184Z,27.65
2022-08-17T17:45:08.324Z,27.55
2022-08-17T17:46:49.552Z,27.48
2022-08-17T17:48:21.410Z,27.44
2022-08-17T17:49:53.153Z,27.49
2022-08-17T17:52:09.177Z,27.55
2022-08-17T17:53:43.055Z,27.57
2022-08-17T17:55:35.354Z,27.48
2022-08-17T17:57:21.417Z,27.43
2022-08-17T17:58:59.960Z,27.48
2022-08-17T18:00:38.565Z,27.49
2022-08-17T18:02:44.276Z,27.46
2022-08-17T18:04:32.596Z,27.17
2022-08-17T18:06:15.087Z,27.11
2022-08-17T18:07:54.283Z,27.08
2022-08-17T18:09:40.018Z,27.14
2022-08-17T18:11:24.544Z,27.21
2022-08-17T18:13:07.954Z,27.29
2022-08-17T18:15:00.986Z,27.31
2022-08-17T18:16:32.969Z,27.32
2022-08-17T18:18:39.886Z,27.28
2022-08-17T18:20:11.765Z,27.09
2022-08-17T18:21:48.903Z,26.97
2022-08-17T18:23:27.075Z,26.79
2022-08-17T18:25:00.165Z,26.67
2022-08-17T18:26:49.989Z,26.66
2022-08-17T18:28:30.397Z,26.64
2022-08-17T18:30:32.507Z,26.61
2022-08-17T18:32:32.075Z,26.47
2022-08-17T18:34:45.812Z,26.41
2022-08-17T18:36:28.039Z,26.37
2022-08-17T18:38:20.657Z,26.33
2022-08-17T18:39:55.902Z,26.26
2022-08-17T18:41:30.366Z,26.25
2022-08-17T18:43:14.895Z,26.23
2022-08-17T18:44:48.768Z,26.15
2022-08-17T18:46:29.745Z,26.14
2022-08-17T18:48:02.266Z,26.13
2022-08-17T18:49:36.195Z,26.12
2022-08-17T18:51:39.911Z,26.13
2022-08-17T18:53:34.192Z,26.06
2022-08-17T18:55:09.128Z,26.00
2022-08-17T18:56:49.261Z,26.00
2022-08-17T18:58:25.236Z,25.99
2022-08-17T18:59:58.471Z,26.04
2022-08-17T19:01:46.962Z,26.06
2022-08-17T19:03:26.535Z,26.00
2022-08-17T19:05:07.976Z,25.94
2022-08-17T19:06:39.780Z,25.79
2022-08-17T19:08:19.032Z,25.61
2022-08-17T19:09:55.902Z,25.51
2022-08-17T19:11:32.696Z,25.36
2022-08-17T19:13:12.660Z,25.28
2022-08-17T19:14:45.844Z,25.16
2022-08-17T19:16:23.841Z,25.15
2022-08-17T19:18:03.211Z,25.10
2022-08-17T19:19:52.521Z,25.06
2022-08-17T19:21:30.642Z,25.05
2022-08-17T19:23:10.515Z,25.02
2022-08-17T19:24:47.837Z,24.87
2022-08-17T19:26:55.457Z,24.84
2022-08-17T19:28:29.741Z,24.81
2022-08-17T19:30:12.743Z,24.81
2022-08-17T19:31:55.074Z,24.76
2022-08-17T19:33:27.262Z,24.70
2022-08-17T19:35:00.990Z,24.67
2022-08-17T19:36:42.970Z,24.70
2022-08-17T19:38:26.572Z,24.65
2022-08-17T19:40:08.677Z,24.59
2022-08-17T19:41:46.608Z,24.54
2022-08-17T19:43:28.661Z,24.53
2022-08-17T19:45:08.641Z,24.59
2022-08-17T19:46:49.855Z,24.48
2022-08-17T19:48:35.605Z,24.49
2022-08-17T19:50:16.215Z,24.49
2022-08-17T19:51:54.500Z,24.56
2022-08-17T19:54:01.663Z,24.58
2022-08-17T19:55:36.202Z,24.57
2022-08-17T19:57:15.982Z,24.55
2022-08-17T19:59:01.038Z,24.56
2022-08-17T20:00:42.503Z,24.51
2022-08-17T20:02:25.189Z,24.43
2022-08-17T20:04:03.383Z,24.42
2022-08-17T20:06:08.647Z,24.41
2022-08-17T20:07:42.166Z,24.39
2022-08-17T20:09:21.145Z,24.43
2022-08-17T20:10:58.307Z,24.50
2022-08-17T20:12:33.469Z,24.56
2022-08-17T20:14:12.298Z,24.63
2022-08-17T20:15:46.330Z,24.69
2022-08-17T20:17:20.440Z,24.75
2022-08-17T20:19:00.174Z,24.65
2022-08-17T20:20:38.759Z,24.54
2022-08-17T20:22:21.265Z,24.45
2022-08-17T20:24:02.121Z,24.38
2022-08-17T20:25:43.914Z,24.32
2022-08-17T20:27:31.355Z,24.36
2022-08-17T20:29:36.847Z,24.36
2022-08-17T20:31:41.358Z,24.45
2022-08-17T20:33:24.693Z,24.53
2022-08-17T20:35:21.382Z,24.51
2022-08-17T20:37:01.930Z,24.43
2022-08-17T20:38:41.900Z,24.40
2022-08-17T20:40:22.246Z,24.37
2022-08-17T20:42:06.057Z,24.35
2022-08-17T20:44:06.674Z,24.31
2022-08-17T20:46:08.082Z,24.20
2022-08-17T20:48:15.260Z,24.13
2022-08-17T20:49:59.742Z,24.01
2022-08-17T20:52:00.455Z,23.98
2022-08-17T20:54:07.745Z,23.94
2022-08-17T20:55:55.883Z,23.91
2022-08-17T20:57:48.437Z,23.89
2022-08-17T20:59:55.098Z,23.85
2022-08-17T21:01:39.670Z,23.79
2022-08-17T21:03:51.768Z,23.75
2022-08-17T21:05:37.162Z,23.71
2022-08-17T21:07:42.566Z,23.72
2022-08-17T21:09:32.993Z,23.74
2022-08-17T21:11:56.808Z,23.67
2022-08-17T21:14:00.438Z,23.59
2022-08-17T21:15:42.419Z,23.52
2022-08-17T21:17:56.314Z,23.42
2022-08-17T21:20:08.038Z,23.25
2022-08-17T21:21:51.263Z,23.11
2022-08-17T21:23:46.754Z,23.12
2022-08-17T21:25:48.858Z,23.17
2022-08-17T21:27:37.319Z,23.22